Etusivu
METAR-TAF:

METAR-TAF

Lentoasemat :

Joliet Regional Airport

Joliet, Illinois, Yhdysvallat

Leveyspiiri: 41-31-05N, Pituuspiiri: 088-10-31W, korkeus merenpinnasta: 177 m

Tämänhetkinen sää

Tämä raportti tehtiin 23 minuuttia sitten, kello 12.15 UTC
Tuuli 4 kn pohjoisesta/koillisesta
Lämpötila 4°C
Kosteus 70%
Ilmanpaine 1013 hPa
Näkyvyys: 16.1 km
selkeää

METAR: KJOT 241215Z AUTO 03004KT 10SM CLR 04/M01 A2990 RMK AO2 T00401013

Aika: 06:38 (12:38 UTC)


TAF: puuttuu

Säähavainnot ja -ennusteet yli 4000 lentoasemalta (METAR- ja TAF-raportit).

Käytössä olevat sääasemat on merkitty karttaan keltaisilla ja punaisilla pisteillä.

Aseta hiiri pisteen päälle nähdäksesi sääaseman nimen.

Klikkaa sitten nähdäksesi säähavainnot ja -ennusteet.

Kartan vaihtaminen: klikkaa mustalla rastilla varustettuja vihreitä pisteitä, niin voit zoomata sisään; viivalla varustettua vihreää pistettä, niin voit zoomata ulos tai vihreitä nuolia, niin pääset viereisille kartoille.


METAR-TAF: